createdAt,value
2023-05-17T00:02:28.198Z,6.30
2023-05-17T00:05:03.210Z,6.20
2023-05-17T00:07:36.372Z,6.20
2023-05-17T00:10:10.323Z,6.20
2023-05-17T00:12:43.379Z,6.20
2023-05-17T00:15:16.486Z,6.10
2023-05-17T00:17:49.616Z,6.00
2023-05-17T00:20:24.117Z,5.90
2023-05-17T00:22:57.224Z,5.90
2023-05-17T00:25:30.494Z,5.90
2023-05-17T00:28:03.678Z,5.90
2023-05-17T00:30:36.758Z,5.90
2023-05-17T00:33:09.996Z,5.90
2023-05-17T00:35:44.451Z,5.90
2023-05-17T00:38:17.510Z,5.80
2023-05-17T00:40:51.234Z,5.80
2023-05-17T00:43:26.056Z,5.80
2023-05-17T00:45:59.307Z,5.80
2023-05-17T00:48:32.918Z,5.70
2023-05-17T00:51:09.897Z,5.70
2023-05-17T00:53:43.113Z,5.70
2023-05-17T00:56:16.413Z,5.70
2023-05-17T00:58:49.898Z,5.70
2023-05-17T01:01:23.042Z,5.70
2023-05-17T01:03:56.218Z,5.70
2023-05-17T01:06:30.809Z,5.70
2023-05-17T01:09:04.371Z,5.70
2023-05-17T01:11:51.781Z,5.60
2023-05-17T01:14:42.652Z,5.60
2023-05-17T01:17:19.360Z,5.60
2023-05-17T01:20:00.921Z,5.60
2023-05-17T01:22:46.368Z,5.50
2023-05-17T01:25:47.552Z,5.40
2023-05-17T01:28:24.275Z,5.30
2023-05-17T01:30:59.997Z,5.20
2023-05-17T01:33:33.786Z,5.30
2023-05-17T01:36:08.460Z,5.30
2023-05-17T01:38:41.517Z,5.30
2023-05-17T01:41:20.809Z,5.30
2023-05-17T01:44:02.395Z,5.30
2023-05-17T01:46:41.923Z,5.30
2023-05-17T01:49:22.918Z,5.30
2023-05-17T01:52:03.499Z,5.30
2023-05-17T01:54:42.981Z,5.30
2023-05-17T01:57:17.274Z,5.30
2023-05-17T01:59:53.722Z,5.30
2023-05-17T02:02:26.823Z,5.30
2023-05-17T02:04:59.957Z,5.30
2023-05-17T02:07:33.106Z,5.20
2023-05-17T02:10:07.633Z,5.20
2023-05-17T02:12:40.901Z,5.20
2023-05-17T02:15:16.624Z,5.10
2023-05-17T02:17:50.047Z,5.10
2023-05-17T02:20:23.499Z,5.00
2023-05-17T02:22:56.526Z,5.00
2023-05-17T02:25:29.831Z,5.10
2023-05-17T02:28:03.280Z,5.10
2023-05-17T02:30:40.756Z,5.00
2023-05-17T02:33:13.986Z,5.00
2023-05-17T02:35:47.083Z,4.90
2023-05-17T02:38:20.156Z,4.90
2023-05-17T02:40:53.223Z,4.90
2023-05-17T02:43:26.269Z,4.90
2023-05-17T02:46:00.676Z,4.80
2023-05-17T02:48:33.818Z,4.70
2023-05-17T02:51:07.349Z,4.70
2023-05-17T02:53:40.395Z,4.60
2023-05-17T02:56:13.531Z,4.60
2023-05-17T02:58:46.571Z,4.60
2023-05-17T03:01:21.329Z,4.60
2023-05-17T03:03:54.790Z,4.70
2023-05-17T03:06:28.057Z,4.60
2023-05-17T03:09:01.305Z,4.60
2023-05-17T03:11:34.340Z,4.50
2023-05-17T03:14:07.402Z,4.50
2023-05-17T03:16:41.804Z,4.50
2023-05-17T03:19:14.934Z,4.50
2023-05-17T03:21:48.077Z,4.50
2023-05-17T03:24:21.162Z,4.40
2023-05-17T03:26:54.186Z,4.40
2023-05-17T03:29:27.231Z,4.40
2023-05-17T03:32:02.819Z,4.30
2023-05-17T03:34:35.906Z,4.20
2023-05-17T03:37:09.649Z,4.20
2023-05-17T03:39:42.678Z,4.10
2023-05-17T03:42:15.974Z,4.20
2023-05-17T03:44:49.009Z,4.20
2023-05-17T03:47:24.000Z,4.20
2023-05-17T03:49:57.248Z,4.30
2023-05-17T03:52:30.293Z,4.30
2023-05-17T03:55:03.562Z,4.30
2023-05-17T03:57:36.643Z,4.30
2023-05-17T04:00:12.292Z,4.40
2023-05-17T04:02:46.739Z,4.40
2023-05-17T04:05:20.555Z,4.40
2023-05-17T04:07:53.879Z,4.40
2023-05-17T04:10:27.043Z,4.40
2023-05-17T04:13:00.087Z,4.40
2023-05-17T04:15:33.169Z,4.50
2023-05-17T04:18:08.044Z,4.60
2023-05-17T04:20:41.141Z,4.60
2023-05-17T04:23:14.257Z,4.60
2023-05-17T04:25:47.324Z,4.60
2023-05-17T04:28:21.943Z,4.70
2023-05-17T04:30:54.996Z,4.70
2023-05-17T04:33:29.413Z,4.80
2023-05-17T04:36:02.595Z,4.80
2023-05-17T04:38:35.762Z,4.80
2023-05-17T04:41:10.010Z,4.80
2023-05-17T04:43:43.064Z,4.80
2023-05-17T04:46:16.107Z,4.80
2023-05-17T04:48:50.766Z,4.80
2023-05-17T04:51:24.310Z,4.80
2023-05-17T04:53:58.439Z,4.90
2023-05-17T04:56:31.601Z,5.00
2023-05-17T04:59:04.773Z,5.20
2023-05-17T05:01:37.923Z,5.30
2023-05-17T05:04:12.429Z,5.50
2023-05-17T05:06:45.764Z,5.60
2023-05-17T05:09:18.920Z,5.70
2023-05-17T05:11:51.982Z,5.80
2023-05-17T05:14:25.142Z,5.90
2023-05-17T05:16:58.220Z,6.10
2023-05-17T05:19:32.738Z,6.60
2023-05-17T05:22:06.362Z,7.00
2023-05-17T05:24:39.490Z,7.60
2023-05-17T05:27:12.550Z,8.10
2023-05-17T05:29:45.646Z,8.50
2023-05-17T05:32:19.017Z,8.80
2023-05-17T05:34:53.573Z,9.00
2023-05-17T05:37:26.736Z,9.30
2023-05-17T05:40:00.233Z,9.50
2023-05-17T05:42:33.496Z,9.70
2023-05-17T05:45:08.279Z,9.90
2023-05-17T05:47:41.540Z,10.20
2023-05-17T05:50:16.588Z,10.30
2023-05-17T05:52:49.641Z,10.80
2023-05-17T05:55:22.753Z,10.90
2023-05-17T05:57:55.784Z,11.20
2023-05-17T06:00:29.533Z,11.20
2023-05-17T06:03:02.827Z,11.40
2023-05-17T06:05:37.502Z,11.80
2023-05-17T06:08:10.677Z,11.90
2023-05-17T06:10:44.164Z,12.20
2023-05-17T06:13:17.279Z,12.40
2023-05-17T06:15:51.110Z,12.40
2023-05-17T06:18:24.339Z,12.60
2023-05-17T06:20:58.884Z,12.80
2023-05-17T06:23:32.115Z,13.10
2023-05-17T06:26:09.210Z,13.20
2023-05-17T06:28:42.261Z,13.30
2023-05-17T06:31:15.387Z,13.70
2023-05-17T06:33:48.488Z,14.00
2023-05-17T06:36:24.371Z,14.20
2023-05-17T06:38:58.558Z,14.10
2023-05-17T06:41:31.643Z,14.00
2023-05-17T06:44:04.714Z,14.30
2023-05-17T06:46:37.757Z,14.90
2023-05-17T06:49:10.849Z,15.20
2023-05-17T06:51:45.286Z,15.30
2023-05-17T06:54:20.535Z,15.50
2023-05-17T06:56:53.652Z,15.20
2023-05-17T06:59:26.770Z,15.00
2023-05-17T07:02:00.311Z,14.70
2023-05-17T07:04:33.447Z,14.70
2023-05-17T07:07:07.996Z,14.50
2023-05-17T07:09:41.485Z,14.60
2023-05-17T07:12:14.632Z,14.40
2023-05-17T07:14:47.694Z,14.40
2023-05-17T07:17:20.881Z,14.60
2023-05-17T07:19:54.099Z,14.50
2023-05-17T07:22:28.566Z,14.20
2023-05-17T07:25:01.591Z,14.10
2023-05-17T07:27:34.708Z,14.60
2023-05-17T07:30:09.588Z,14.60
2023-05-17T07:32:42.718Z,14.60
2023-05-17T07:35:15.972Z,14.30
2023-05-17T07:37:50.595Z,14.10
2023-05-17T07:40:23.663Z,13.60
2023-05-17T07:42:56.712Z,13.40
2023-05-17T07:45:30.256Z,13.60
2023-05-17T07:48:03.604Z,13.40
2023-05-17T07:50:36.713Z,13.70
2023-05-17T07:53:13.560Z,13.70
2023-05-17T07:55:49.363Z,13.80
2023-05-17T07:58:22.589Z,14.20
2023-05-17T08:00:55.618Z,14.40
2023-05-17T08:03:29.485Z,13.80
2023-05-17T08:06:02.685Z,13.90
2023-05-17T08:08:37.244Z,14.70
2023-05-17T08:11:11.886Z,15.00
2023-05-17T08:13:45.564Z,15.10
2023-05-17T08:16:18.643Z,14.90
2023-05-17T08:18:51.823Z,15.40
2023-05-17T08:21:27.729Z,15.80
2023-05-17T08:24:03.412Z,15.80
2023-05-17T08:26:37.604Z,15.40
2023-05-17T08:29:10.703Z,15.30
2023-05-17T08:31:43.817Z,15.30
2023-05-17T08:34:16.951Z,15.80
2023-05-17T08:36:50.438Z,15.70
2023-05-17T08:39:24.862Z,15.80
2023-05-17T08:41:59.513Z,15.40
2023-05-17T08:44:33.294Z,15.10
2023-05-17T08:47:11.264Z,15.30
2023-05-17T08:49:46.950Z,15.00
2023-05-17T08:52:21.601Z,14.80
2023-05-17T08:54:56.013Z,14.90
2023-05-17T08:57:32.230Z,14.80
2023-05-17T09:00:12.439Z,14.90
2023-05-17T09:02:45.640Z,15.00
2023-05-17T09:05:18.883Z,14.80
2023-05-17T09:07:52.934Z,14.90
2023-05-17T09:10:27.505Z,15.10
2023-05-17T09:13:00.734Z,15.10
2023-05-17T09:15:34.304Z,15.50
2023-05-17T09:18:07.809Z,15.70
2023-05-17T09:20:42.116Z,15.50
2023-05-17T09:23:15.193Z,15.60
2023-05-17T09:25:50.338Z,15.50
2023-05-17T09:28:23.550Z,15.20
2023-05-17T09:30:56.670Z,14.30
2023-05-17T09:33:29.728Z,14.50
2023-05-17T09:36:03.187Z,14.20
2023-05-17T09:38:36.234Z,14.40
2023-05-17T09:41:10.796Z,13.80
2023-05-17T09:43:44.382Z,14.10
2023-05-17T09:46:17.445Z,14.70
2023-05-17T09:48:56.469Z,15.00
2023-05-17T09:51:37.297Z,14.90
2023-05-17T09:54:11.781Z,15.00
2023-05-17T09:56:46.622Z,14.90
2023-05-17T09:59:21.340Z,15.00
2023-05-17T10:01:55.152Z,15.10
2023-05-17T10:04:31.867Z,15.20
2023-05-17T10:07:05.903Z,15.20
2023-05-17T10:09:39.226Z,15.00
2023-05-17T10:12:16.086Z,14.90
2023-05-17T10:14:50.141Z,14.90
2023-05-17T10:17:24.487Z,14.70
2023-05-17T10:19:58.677Z,15.00
2023-05-17T10:22:32.489Z,15.20
2023-05-17T10:25:06.725Z,15.30
2023-05-17T10:27:41.915Z,15.20
2023-05-17T10:30:16.557Z,14.90
2023-05-17T10:32:51.672Z,14.90
2023-05-17T10:35:26.393Z,14.60
2023-05-17T10:37:59.455Z,15.10
2023-05-17T10:40:33.881Z,15.30
2023-05-17T10:43:10.231Z,15.60
2023-05-17T10:45:43.582Z,15.70
2023-05-17T10:48:17.523Z,15.80
2023-05-17T10:51:01.071Z,15.30
2023-05-17T10:53:35.143Z,15.20
2023-05-17T10:56:08.552Z,14.90
2023-05-17T10:58:46.072Z,14.70
2023-05-17T11:01:54.288Z,14.90
2023-05-17T11:04:29.478Z,15.20
2023-05-17T11:07:27.090Z,15.10
2023-05-17T11:10:14.049Z,15.10
2023-05-17T11:12:54.174Z,14.90
2023-05-17T11:15:29.169Z,15.00
2023-05-17T11:18:02.418Z,15.10
2023-05-17T11:20:36.827Z,14.90
2023-05-17T11:23:18.762Z,14.90
2023-05-17T11:25:54.138Z,15.10
2023-05-17T11:28:28.239Z,15.20
2023-05-17T11:31:03.492Z,15.40
2023-05-17T11:33:40.905Z,15.50
2023-05-17T11:36:22.263Z,15.60
2023-05-17T11:39:13.107Z,15.50
2023-05-17T11:41:51.067Z,15.80
2023-05-17T11:44:26.884Z,15.90
2023-05-17T11:47:06.224Z,16.00
2023-05-17T11:49:40.689Z,15.80
2023-05-17T11:52:17.553Z,15.70
2023-05-17T11:54:51.713Z,15.70
2023-05-17T11:57:31.398Z,15.20
2023-05-17T12:00:06.608Z,15.10
2023-05-17T12:02:41.064Z,15.20
2023-05-17T12:05:22.098Z,15.30
2023-05-17T12:07:55.154Z,15.30
2023-05-17T12:10:28.343Z,15.30
2023-05-17T12:13:02.529Z,15.10
2023-05-17T12:15:35.889Z,15.30
2023-05-17T12:18:10.300Z,15.30
2023-05-17T12:20:57.478Z,15.70
2023-05-17T12:23:32.432Z,15.70
2023-05-17T12:26:07.654Z,15.80
2023-05-17T12:28:42.561Z,15.80
2023-05-17T12:31:18.754Z,15.70
2023-05-17T12:33:53.610Z,15.60
2023-05-17T12:36:29.096Z,15.60
2023-05-17T12:39:02.965Z,15.50
2023-05-17T12:41:37.129Z,15.60
2023-05-17T12:44:15.205Z,15.70
2023-05-17T12:46:53.572Z,15.80
2023-05-17T12:49:28.217Z,15.70
2023-05-17T12:52:06.082Z,15.60
2023-05-17T12:54:41.799Z,15.60
2023-05-17T12:57:16.050Z,15.40
2023-05-17T12:59:50.601Z,15.10
2023-05-17T13:02:24.217Z,15.00
2023-05-17T13:04:58.839Z,14.50
2023-05-17T13:07:31.945Z,14.40
2023-05-17T13:10:05.508Z,14.50
2023-05-17T13:12:40.400Z,14.70
2023-05-17T13:15:13.417Z,14.80
2023-05-17T13:17:50.212Z,15.00
2023-05-17T13:20:24.832Z,15.00
2023-05-17T13:22:57.876Z,15.00
2023-05-17T13:25:31.593Z,14.80
2023-05-17T13:28:04.780Z,14.60
2023-05-17T13:30:39.349Z,14.60
2023-05-17T13:33:13.140Z,14.30
2023-05-17T13:35:47.586Z,14.20
2023-05-17T13:38:20.604Z,14.30
2023-05-17T13:40:53.710Z,14.20
2023-05-17T13:43:26.728Z,14.30
2023-05-17T13:45:59.748Z,14.30
2023-05-17T13:48:32.890Z,14.40
2023-05-17T13:51:07.699Z,14.50
2023-05-17T13:53:41.584Z,14.60
2023-05-17T13:56:14.627Z,14.70
2023-05-17T13:58:48.102Z,14.90
2023-05-17T14:01:21.273Z,15.00
2023-05-17T14:03:55.300Z,15.00
2023-05-17T14:06:30.037Z,14.90
2023-05-17T14:09:04.065Z,15.00
2023-05-17T14:11:37.126Z,14.80
2023-05-17T14:14:10.172Z,14.90
2023-05-17T14:16:43.182Z,14.90
2023-05-17T14:19:16.267Z,14.80
2023-05-17T14:21:51.148Z,14.80
2023-05-17T14:24:24.173Z,14.90
2023-05-17T14:26:57.720Z,14.80
2023-05-17T14:29:32.192Z,14.90
2023-05-17T14:32:06.638Z,14.80
2023-05-17T14:34:39.675Z,14.60
2023-05-17T14:37:14.801Z,14.50
2023-05-17T14:40:05.383Z,14.40
2023-05-17T14:42:39.645Z,14.40
2023-05-17T14:45:12.734Z,14.30
2023-05-17T14:47:45.865Z,14.30
2023-05-17T14:50:19.117Z,14.10
2023-05-17T14:52:53.500Z,14.10
2023-05-17T14:55:27.331Z,14.10
2023-05-17T14:58:01.760Z,14.10
2023-05-17T15:00:34.854Z,13.90
2023-05-17T15:03:08.051Z,13.90
2023-05-17T15:05:41.336Z,13.90
2023-05-17T15:08:15.689Z,13.90
2023-05-17T15:10:51.321Z,14.00
2023-05-17T15:13:24.589Z,13.90
2023-05-17T15:15:57.713Z,13.80
2023-05-17T15:18:31.359Z,13.90
2023-05-17T15:21:04.676Z,13.80
2023-05-17T15:23:39.260Z,13.90
2023-05-17T15:26:12.389Z,13.80
2023-05-17T15:28:45.547Z,14.00
2023-05-17T15:31:18.615Z,14.10
2023-05-17T15:33:51.758Z,14.20
2023-05-17T15:36:24.853Z,14.10
2023-05-17T15:38:59.261Z,13.90
2023-05-17T15:41:32.626Z,14.00
2023-05-17T15:44:07.944Z,14.00
2023-05-17T15:46:40.966Z,14.00
2023-05-17T15:49:14.046Z,13.90
2023-05-17T15:51:47.098Z,13.90
2023-05-17T15:54:21.465Z,13.80
2023-05-17T15:56:54.558Z,13.90
2023-05-17T15:59:27.736Z,14.00
2023-05-17T16:02:00.789Z,14.00
2023-05-17T16:04:33.996Z,14.00
2023-05-17T16:07:07.239Z,14.10
2023-05-17T16:09:41.630Z,13.90
2023-05-17T16:12:14.674Z,14.00
2023-05-17T16:14:47.794Z,14.00
2023-05-17T16:17:21.298Z,14.00
2023-05-17T16:19:54.816Z,13.90
2023-05-17T16:22:27.947Z,13.90
2023-05-17T16:25:02.418Z,13.90
2023-05-17T16:27:35.597Z,13.90
2023-05-17T16:30:09.938Z,13.70
2023-05-17T16:32:43.273Z,13.60
2023-05-17T16:35:17.989Z,13.60
2023-05-17T16:37:52.230Z,13.70
2023-05-17T16:40:28.778Z,13.60
2023-05-17T16:43:02.163Z,13.60
2023-05-17T16:45:35.310Z,13.40
2023-05-17T16:48:08.430Z,13.30
2023-05-17T16:50:41.697Z,13.20
2023-05-17T16:53:14.766Z,13.20
2023-05-17T16:55:49.127Z,13.20
2023-05-17T16:58:22.542Z,13.20
2023-05-17T17:00:55.717Z,13.10
2023-05-17T17:03:28.810Z,13.00
2023-05-17T17:06:01.965Z,13.10
2023-05-17T17:08:35.030Z,13.10
2023-05-17T17:11:09.499Z,13.10
2023-05-17T17:13:42.642Z,13.00
2023-05-17T17:16:15.765Z,13.00
2023-05-17T17:18:49.764Z,13.00
2023-05-17T17:21:22.948Z,13.00
2023-05-17T17:23:56.006Z,13.10
2023-05-17T17:26:30.610Z,13.10
2023-05-17T17:29:04.282Z,13.20
2023-05-17T17:31:37.504Z,13.00
2023-05-17T17:34:10.535Z,13.00
2023-05-17T17:36:44.093Z,13.00
2023-05-17T17:39:17.433Z,13.00
2023-05-17T17:41:51.828Z,12.90
2023-05-17T17:44:24.881Z,12.90
2023-05-17T17:46:58.040Z,13.00
2023-05-17T17:49:31.137Z,12.90
2023-05-17T17:52:04.300Z,12.80
2023-05-17T17:54:37.376Z,12.80
2023-05-17T17:57:11.752Z,12.80
2023-05-17T17:59:44.794Z,12.70
2023-05-17T18:02:17.886Z,12.70
2023-05-17T18:04:51.019Z,12.70
2023-05-17T18:07:24.155Z,12.70
2023-05-17T18:09:57.346Z,12.70
2023-05-17T18:12:31.809Z,12.60
2023-05-17T18:15:06.005Z,12.60
2023-05-17T18:17:39.622Z,12.60
2023-05-17T18:20:12.824Z,12.50
2023-05-17T18:22:45.960Z,12.40
2023-05-17T18:25:19.270Z,12.40
2023-05-17T18:27:53.638Z,12.40
2023-05-17T18:30:26.716Z,12.30
2023-05-17T18:32:59.767Z,12.20
2023-05-17T18:35:32.858Z,12.10
2023-05-17T18:38:05.873Z,12.00
2023-05-17T18:40:38.964Z,11.90
2023-05-17T18:43:13.421Z,11.90
2023-05-17T18:45:46.455Z,11.80
2023-05-17T18:48:21.949Z,11.70
2023-05-17T18:50:55.039Z,11.70
2023-05-17T18:53:29.832Z,11.60
2023-05-17T18:56:03.100Z,11.50
2023-05-17T18:58:37.559Z,11.40
2023-05-17T19:01:10.610Z,11.30
2023-05-17T19:03:43.845Z,11.20
2023-05-17T19:06:17.803Z,11.20
2023-05-17T19:08:51.934Z,11.00
2023-05-17T19:11:28.495Z,10.90
2023-05-17T19:14:03.164Z,10.90
2023-05-17T19:16:36.209Z,10.80
2023-05-17T19:19:09.939Z,10.70
2023-05-17T19:21:43.162Z,10.60
2023-05-17T19:24:16.220Z,10.50
2023-05-17T19:26:49.230Z,10.50
2023-05-17T19:29:23.668Z,10.40
2023-05-17T19:31:56.813Z,10.30
2023-05-17T19:34:29.917Z,10.20
2023-05-17T19:37:02.940Z,10.20
2023-05-17T19:39:36.365Z,10.10
2023-05-17T19:42:09.925Z,9.90
2023-05-17T19:44:44.554Z,9.90
2023-05-17T19:47:17.889Z,9.90
2023-05-17T19:49:51.835Z,9.80
2023-05-17T19:52:24.997Z,9.70
2023-05-17T19:54:58.011Z,9.60
2023-05-17T19:57:31.614Z,9.50
2023-05-17T20:00:07.944Z,9.50
2023-05-17T20:02:41.274Z,9.50
2023-05-17T20:05:15.058Z,9.50
2023-05-17T20:07:48.842Z,9.40
2023-05-17T20:10:22.248Z,9.30
2023-05-17T20:12:56.006Z,9.30
2023-05-17T20:15:30.466Z,9.20
2023-05-17T20:18:05.112Z,9.20
2023-05-17T20:20:38.845Z,9.10
2023-05-17T20:23:13.464Z,9.10
2023-05-17T20:25:46.523Z,9.00
2023-05-17T20:28:19.595Z,9.00
2023-05-17T20:30:55.622Z,8.90
2023-05-17T20:33:28.645Z,8.80
2023-05-17T20:36:01.741Z,8.80
2023-05-17T20:38:34.796Z,8.70
2023-05-17T20:41:08.049Z,8.70
2023-05-17T20:43:42.199Z,8.60
2023-05-17T20:46:17.853Z,8.60
2023-05-17T20:48:51.062Z,8.50
2023-05-17T20:51:24.152Z,8.50
2023-05-17T20:53:57.181Z,8.50
2023-05-17T20:56:31.193Z,8.40
2023-05-17T20:59:04.437Z,8.30
2023-05-17T21:01:38.981Z,8.30
2023-05-17T21:04:13.876Z,8.30
2023-05-17T21:06:47.254Z,8.20
2023-05-17T21:09:20.502Z,8.20
2023-05-17T21:11:53.596Z,8.10
2023-05-17T21:14:26.666Z,8.00
2023-05-17T21:17:02.279Z,7.90
2023-05-17T21:19:35.405Z,7.90
2023-05-17T21:22:08.544Z,7.90
2023-05-17T21:24:41.565Z,7.80
2023-05-17T21:27:14.582Z,7.60
2023-05-17T21:29:47.573Z,7.50
2023-05-17T21:32:22.264Z,7.50
2023-05-17T21:34:55.363Z,7.40
2023-05-17T21:37:28.434Z,7.40
2023-05-17T21:40:01.436Z,7.40
2023-05-17T21:42:35.021Z,7.40
2023-05-17T21:45:09.327Z,7.40
2023-05-17T21:47:43.724Z,7.40
2023-05-17T21:50:17.501Z,7.30
2023-05-17T21:52:50.665Z,7.30
2023-05-17T21:55:23.906Z,7.30
2023-05-17T21:57:56.954Z,7.20
2023-05-17T22:00:30.663Z,7.20
2023-05-17T22:03:05.743Z,7.10
2023-05-17T22:05:39.649Z,7.10
2023-05-17T22:08:12.702Z,7.00
2023-05-17T22:10:46.638Z,6.90
2023-05-17T22:13:25.326Z,6.90
2023-05-17T22:15:58.491Z,6.90
2023-05-17T22:18:33.003Z,6.80
2023-05-17T22:21:06.707Z,6.80
2023-05-17T22:23:39.732Z,6.80
2023-05-17T22:26:12.985Z,6.80
2023-05-17T22:28:46.036Z,6.80
2023-05-17T22:31:19.749Z,6.70
2023-05-17T22:33:54.189Z,6.70
2023-05-17T22:36:27.249Z,6.60
2023-05-17T22:39:00.791Z,6.60
2023-05-17T22:41:33.831Z,6.60
2023-05-17T22:44:06.884Z,6.60
2023-05-17T22:46:41.978Z,6.60
2023-05-17T22:49:16.941Z,6.50
2023-05-17T22:51:50.086Z,6.40
2023-05-17T22:54:23.677Z,6.40
2023-05-17T22:56:56.694Z,6.40
2023-05-17T22:59:30.433Z,6.40
2023-05-17T23:02:03.992Z,6.30
2023-05-17T23:04:40.330Z,6.30
2023-05-17T23:07:14.930Z,6.20
2023-05-17T23:09:47.988Z,6.10
2023-05-17T23:12:21.051Z,6.10
2023-05-17T23:14:54.082Z,6.10
2023-05-17T23:17:32.234Z,6.00
2023-05-17T23:20:10.278Z,6.00
2023-05-17T23:22:44.145Z,6.00
2023-05-17T23:25:17.775Z,6.00
2023-05-17T23:27:50.785Z,6.00
2023-05-17T23:30:23.821Z,5.70
2023-05-17T23:32:57.027Z,5.70
2023-05-17T23:35:31.928Z,5.70
2023-05-17T23:38:07.125Z,5.80
2023-05-17T23:40:40.848Z,5.70
2023-05-17T23:43:14.593Z,5.70
2023-05-17T23:45:47.837Z,5.70
2023-05-17T23:48:21.033Z,5.60
2023-05-17T23:50:55.586Z,5.60
2023-05-17T23:53:28.635Z,5.60
2023-05-17T23:56:01.956Z,5.50
2023-05-17T23:58:34.979Z,5.60
